Laverton (Victoria), Victoria

12:15 PM AEST on July 30, 2015 (GMT +1000)
Derrimut Heath Estate | | Change Station
CLOSE
Current Station
Personal Weather Station
Location: Hoppers Crossing, VICTORIA
Elevation: 98 ft
Nearby Weather Stations

Elev 98 ft 37.86 °S, 144.70 °E | Updated 4 seconds ago

Scattered Clouds
Scattered Clouds
53.8 °F
Feels Like 53.8 °F
N
3.6
Wind Variable Wind from West
Gusts 7.4 mph

Today
High -- | Low -- °F
--% Chance of Precip.
Yesterday
High -- | Low -- °F
Precip. -- in
7:23 AM 5:31 PM
Waxing Gibbous, 97% visible
Pressure 30.04 in
Visibility 6.2 miles
Clouds Scattered Clouds 9000 ft
Dew Point 37 °F
Humidity 52%
Rainfall 0.00 in
Snow Depth Not available.
UV 1.0 out of 12
Pollen Not available.
Air Quality Not available.
Flu Activity Not available.
SPECI YMEN 300203Z AUTO 01016G27KT 9999 // SCT090 10/04 Q1017

More Conditions Fewer Conditions

Pressure 30.04 in
Visibility 6.2 miles
Clouds Scattered Clouds 9000 ft
Dew Point 37 °F
Humidity 52%
Rainfall 0.00 in
Snow Depth Not available.
UV 1.0 out of 12
Pollen Not available.
Air Quality Not available.
Flu Activity Not available.
SPECI YMEN 300203Z AUTO 01016G27KT 9999 // SCT090 10/04 Q1017

More Conditions Fewer Conditions

10-Day Weather Forecast

×

Almanac

Astronomy

Jul. 30, 2015 Rise Set
Actual Time
Civil Twilight
Nautical Twilight
Astronomical Twilight
Moon
Length of Visible Light
Length of Day
Tomorrow will be .
, % of the Moon is Illuminated

Today's Extremes

Country Highs Country Lows

Community

WunderPhotos

Upload Photos

1,842,258 photos uploaded!

WunderBlogs® & News

Nearby

Air Quality

  Air Quality AQ Index Pollutant
Not available.

Snow Depth

Station Depth Elevation

Earthquake Activity

City Distance Mag. Time & Date
Minimum magnitude displayed is 2.5.

Coastal Water Temperatures

Place Temperature

Stations

Nearby Weather Stations

Station Location Temp. Windchill Dew Point Humidity Wind Precip. Elev Updated Type